sensor_id;sensor_type;location;lat;lon;timestamp;pressure;altitude;pressure_sealevel;temperature;humidity
10474;BME280;5284;50.446;7.904;2022-09-09T00:01:43;97861.06;;;15.80;100.00
10474;BME280;5284;50.446;7.904;2022-09-09T00:06:57;97851.94;;;15.66;100.00
10474;BME280;5284;50.446;7.904;2022-09-09T00:12:09;97842.03;;;15.67;100.00
10474;BME280;5284;50.446;7.904;2022-09-09T00:17:20;97856.66;;;15.64;100.00
10474;BME280;5284;50.446;7.904;2022-09-09T00:22:29;97852.66;;;15.60;100.00
10474;BME280;5284;50.446;7.904;2022-09-09T00:27:39;97858.19;;;15.59;100.00
10474;BME280;5284;50.446;7.904;2022-09-09T00:32:44;97855.69;;;15.57;100.00
10474;BME280;5284;50.446;7.904;2022-09-09T00:37:48;97844.09;;;15.57;100.00
10474;BME280;5284;50.446;7.904;2022-09-09T00:43:06;97836.69;;;15.59;100.00
10474;BME280;5284;50.446;7.904;2022-09-09T00:48:12;97835.22;;;15.56;100.00
10474;BME280;5284;50.446;7.904;2022-09-09T00:53:32;97841.47;;;15.49;100.00
10474;BME280;5284;50.446;7.904;2022-09-09T00:58:42;97843.34;;;15.40;100.00
10474;BME280;5284;50.446;7.904;2022-09-09T01:03:49;97836.19;;;15.25;100.00
10474;BME280;5284;50.446;7.904;2022-09-09T01:09:05;97851.66;;;15.31;100.00
10474;BME280;5284;50.446;7.904;2022-09-09T01:14:20;97852.31;;;15.33;100.00
10474;BME280;5284;50.446;7.904;2022-09-09T01:19:37;97848.78;;;15.32;100.00
10474;BME280;5284;50.446;7.904;2022-09-09T01:25:19;97840.06;;;15.31;100.00
10474;BME280;5284;50.446;7.904;2022-09-09T01:30:48;97841.91;;;15.30;100.00
10474;BME280;5284;50.446;7.904;2022-09-09T01:35:58;97842.22;;;15.27;100.00
10474;BME280;5284;50.446;7.904;2022-09-09T01:41:06;97841.75;;;15.24;100.00
10474;BME280;5284;50.446;7.904;2022-09-09T01:46:23;97852.22;;;15.19;100.00
10474;BME280;5284;50.446;7.904;2022-09-09T01:51:26;97851.19;;;15.20;100.00
10474;BME280;5284;50.446;7.904;2022-09-09T01:56:39;97860.25;;;15.19;100.00
10474;BME280;5284;50.446;7.904;2022-09-09T02:01:56;97868.47;;;15.17;100.00
10474;BME280;5284;50.446;7.904;2022-09-09T02:07:01;97870.16;;;15.18;100.00
10474;BME280;5284;50.446;7.904;2022-09-09T02:12:08;97863.09;;;15.17;100.00
10474;BME280;5284;50.446;7.904;2022-09-09T02:17:26;97859.41;;;15.18;100.00
10474;BME280;5284;50.446;7.904;2022-09-09T02:22:39;97867.66;;;15.17;100.00
10474;BME280;5284;50.446;7.904;2022-09-09T02:27:45;97866.97;;;15.23;100.00
10474;BME280;5284;50.446;7.904;2022-09-09T02:32:54;97868.13;;;15.28;100.00
10474;BME280;5284;50.446;7.904;2022-09-09T02:38:13;97856.00;;;15.24;100.00
10474;BME280;5284;50.446;7.904;2022-09-09T02:43:31;97846.28;;;15.23;100.00
10474;BME280;5284;50.446;7.904;2022-09-09T02:48:40;97849.97;;;15.22;100.00
10474;BME280;5284;50.446;7.904;2022-09-09T02:53:58;97840.09;;;15.23;100.00
10474;BME280;5284;50.446;7.904;2022-09-09T02:59:04;97841.63;;;15.17;100.00
10474;BME280;5284;50.446;7.904;2022-09-09T03:04:11;97842.94;;;15.21;100.00
10474;BME280;5284;50.446;7.904;2022-09-09T03:09:14;97841.56;;;15.25;100.00
10474;BME280;5284;50.446;7.904;2022-09-09T03:14:17;97837.72;;;15.27;100.00
10474;BME280;5284;50.446;7.904;2022-09-09T03:19:25;97842.91;;;15.29;100.00
10474;BME280;5284;50.446;7.904;2022-09-09T03:24:29;97841.41;;;15.27;100.00
10474;BME280;5284;50.446;7.904;2022-09-09T03:29:32;97837.22;;;15.32;100.00
10474;BME280;5284;50.446;7.904;2022-09-09T03:34:39;97844.28;;;15.33;100.00
10474;BME280;5284;50.446;7.904;2022-09-09T03:39:45;97849.16;;;15.22;100.00
10474;BME280;5284;50.446;7.904;2022-09-09T03:44:50;97840.91;;;15.23;100.00
10474;BME280;5284;50.446;7.904;2022-09-09T03:49:57;97847.97;;;15.24;100.00
10474;BME280;5284;50.446;7.904;2022-09-09T03:55:00;97859.38;;;15.26;100.00
10474;BME280;5284;50.446;7.904;2022-09-09T04:00:06;97863.06;;;15.25;100.00
10474;BME280;5284;50.446;7.904;2022-09-09T04:05:23;97858.88;;;15.31;100.00
10474;BME280;5284;50.446;7.904;2022-09-09T04:10:27;97851.31;;;15.34;100.00
10474;BME280;5284;50.446;7.904;2022-09-09T04:15:30;97867.09;;;15.37;100.00
10474;BME280;5284;50.446;7.904;2022-09-09T04:20:36;97854.09;;;15.40;100.00
10474;BME280;5284;50.446;7.904;2022-09-09T04:25:43;97853.09;;;15.41;100.00
10474;BME280;5284;50.446;7.904;2022-09-09T04:30:48;97852.78;;;15.36;100.00
10474;BME280;5284;50.446;7.904;2022-09-09T04:35:53;97862.38;;;15.39;100.00
10474;BME280;5284;50.446;7.904;2022-09-09T04:40:59;97857.34;;;15.36;100.00
10474;BME280;5284;50.446;7.904;2022-09-09T04:46:03;97859.19;;;15.35;100.00
10474;BME280;5284;50.446;7.904;2022-09-09T04:51:12;97861.56;;;15.31;100.00
10474;BME280;5284;50.446;7.904;2022-09-09T04:56:16;97862.59;;;15.30;100.00
10474;BME280;5284;50.446;7.904;2022-09-09T05:01:26;97866.28;;;15.29;100.00
10474;BME280;5284;50.446;7.904;2022-09-09T05:06:37;97866.78;;;15.32;100.00
10474;BME280;5284;50.446;7.904;2022-09-09T05:11:40;97861.41;;;15.32;100.00
10474;BME280;5284;50.446;7.904;2022-09-09T05:17:03;97871.13;;;15.33;100.00
10474;BME280;5284;50.446;7.904;2022-09-09T05:22:10;97876.16;;;15.36;100.00
10474;BME280;5284;50.446;7.904;2022-09-09T05:27:18;97877.63;;;15.38;100.00
10474;BME280;5284;50.446;7.904;2022-09-09T05:32:23;97876.09;;;15.44;100.00
10474;BME280;5284;50.446;7.904;2022-09-09T05:37:27;97891.16;;;15.53;100.00
10474;BME280;5284;50.446;7.904;2022-09-09T05:42:32;97891.50;;;15.50;100.00
10474;BME280;5284;50.446;7.904;2022-09-09T05:47:36;97881.78;;;15.49;100.00
10474;BME280;5284;50.446;7.904;2022-09-09T05:52:43;97878.44;;;15.47;100.00
10474;BME280;5284;50.446;7.904;2022-09-09T05:57:48;97874.06;;;15.46;100.00
10474;BME280;5284;50.446;7.904;2022-09-09T06:02:54;97878.56;;;15.53;100.00
10474;BME280;5284;50.446;7.904;2022-09-09T06:07:58;97887.59;;;15.60;100.00
10474;BME280;5284;50.446;7.904;2022-09-09T06:13:01;97883.75;;;15.55;100.00
10474;BME280;5284;50.446;7.904;2022-09-09T06:18:05;97881.72;;;15.57;100.00
10474;BME280;5284;50.446;7.904;2022-09-09T06:23:09;97887.91;;;15.65;100.00
10474;BME280;5284;50.446;7.904;2022-09-09T06:28:14;97885.94;;;15.82;100.00
10474;BME280;5284;50.446;7.904;2022-09-09T06:33:17;97887.38;;;15.92;100.00
10474;BME280;5284;50.446;7.904;2022-09-09T06:38:22;97890.13;;;16.07;100.00
10474;BME280;5284;50.446;7.904;2022-09-09T06:43:28;97884.50;;;16.31;100.00
10474;BME280;5284;50.446;7.904;2022-09-09T06:48:31;97876.63;;;16.52;100.00
10474;BME280;5284;50.446;7.904;2022-09-09T06:53:38;97883.88;;;16.51;100.00
10474;BME280;5284;50.446;7.904;2022-09-09T06:58:44;97879.06;;;16.61;100.00
10474;BME280;5284;50.446;7.904;2022-09-09T07:03:56;97894.72;;;16.58;100.00
10474;BME280;5284;50.446;7.904;2022-09-09T07:09:04;97891.97;;;17.09;100.00
10474;BME280;5284;50.446;7.904;2022-09-09T07:14:08;97892.63;;;16.96;100.00
10474;BME280;5284;50.446;7.904;2022-09-09T07:19:14;97889.91;;;16.96;100.00
10474;BME280;5284;50.446;7.904;2022-09-09T07:24:19;97891.84;;;17.17;100.00
10474;BME280;5284;50.446;7.904;2022-09-09T07:29:23;97893.63;;;17.53;98.49
10474;BME280;5284;50.446;7.904;2022-09-09T07:34:25;97893.56;;;17.68;94.19
10474;BME280;5284;50.446;7.904;2022-09-09T07:39:30;97908.59;;;18.12;89.14
10474;BME280;5284;50.446;7.904;2022-09-09T07:44:32;97896.59;;;18.36;84.67
10474;BME280;5284;50.446;7.904;2022-09-09T07:49:45;97910.66;;;18.52;83.08
10474;BME280;5284;50.446;7.904;2022-09-09T07:54:54;97910.63;;;18.73;79.98
10474;BME280;5284;50.446;7.904;2022-09-09T07:59:58;97907.47;;;18.69;78.42
10474;BME280;5284;50.446;7.904;2022-09-09T08:05:02;97920.13;;;18.96;77.63
10474;BME280;5284;50.446;7.904;2022-09-09T08:10:08;97920.31;;;19.22;77.05
10474;BME280;5284;50.446;7.904;2022-09-09T08:15:14;97923.66;;;18.97;76.23
10474;BME280;5284;50.446;7.904;2022-09-09T08:20:17;97924.97;;;18.52;78.08
10474;BME280;5284;50.446;7.904;2022-09-09T08:25:22;97920.63;;;18.31;78.38
10474;BME280;5284;50.446;7.904;2022-09-09T08:30:25;97917.97;;;19.47;74.44
10474;BME280;5284;50.446;7.904;2022-09-09T08:35:30;97915.16;;;20.53;70.04
10474;BME280;5284;50.446;7.904;2022-09-09T08:40:39;97919.72;;;20.98;67.30
10474;BME280;5284;50.446;7.904;2022-09-09T08:45:50;97907.19;;;20.71;66.88
10474;BME280;5284;50.446;7.904;2022-09-09T08:50:58;97918.00;;;20.13;66.17
10474;BME280;5284;50.446;7.904;2022-09-09T08:56:12;97918.47;;;20.55;65.36
10474;BME280;5284;50.446;7.904;2022-09-09T09:01:36;97929.50;;;20.34;64.92
10474;BME280;5284;50.446;7.904;2022-09-09T09:06:50;97919.06;;;20.31;64.09
10474;BME280;5284;50.446;7.904;2022-09-09T09:12:00;97924.94;;;20.48;63.20
10474;BME280;5284;50.446;7.904;2022-09-09T09:17:12;97919.31;;;20.82;63.39
10474;BME280;5284;50.446;7.904;2022-09-09T09:22:19;97920.56;;;20.79;63.00
10474;BME280;5284;50.446;7.904;2022-09-09T09:27:32;97928.50;;;21.00;61.70
10474;BME280;5284;50.446;7.904;2022-09-09T09:32:49;97938.50;;;20.80;62.23
10474;BME280;5284;50.446;7.904;2022-09-09T09:37:55;97934.94;;;21.25;61.75
10474;BME280;5284;50.446;7.904;2022-09-09T09:43:24;97927.63;;;21.19;62.51
10474;BME280;5284;50.446;7.904;2022-09-09T09:48:28;97928.78;;;21.62;61.75
10474;BME280;5284;50.446;7.904;2022-09-09T09:53:32;97928.13;;;21.73;61.22
10474;BME280;5284;50.446;7.904;2022-09-09T09:58:49;97927.34;;;22.41;58.84
10474;BME280;5284;50.446;7.904;2022-09-09T10:03:58;97923.38;;;22.92;58.91
10474;BME280;5284;50.446;7.904;2022-09-09T10:09:03;97916.09;;;21.93;59.56
10474;BME280;5284;50.446;7.904;2022-09-09T10:14:18;97921.19;;;21.83;58.76
10474;BME280;5284;50.446;7.904;2022-09-09T10:19:29;97918.06;;;22.79;57.74
10474;BME280;5284;50.446;7.904;2022-09-09T10:24:44;97919.56;;;23.24;55.70
10474;BME280;5284;50.446;7.904;2022-09-09T10:30:14;97902.19;;;23.61;53.56
10474;BME280;5284;50.446;7.904;2022-09-09T10:35:28;97903.72;;;24.22;52.74
10474;BME280;5284;50.446;7.904;2022-09-09T10:40:33;97895.69;;;24.09;50.86
10474;BME280;5284;50.446;7.904;2022-09-09T10:45:48;97906.03;;;22.44;53.85
10474;BME280;5284;50.446;7.904;2022-09-09T10:50:55;97907.47;;;22.09;55.03
10474;BME280;5284;50.446;7.904;2022-09-09T10:56:08;97915.63;;;22.47;54.51
10474;BME280;5284;50.446;7.904;2022-09-09T11:01:19;97905.03;;;22.63;54.22
10474;BME280;5284;50.446;7.904;2022-09-09T11:06:29;97910.41;;;22.70;53.57
10474;BME280;5284;50.446;7.904;2022-09-09T11:11:37;97911.69;;;23.16;53.42
10474;BME280;5284;50.446;7.904;2022-09-09T11:16:46;97898.09;;;22.67;54.06
10474;BME280;5284;50.446;7.904;2022-09-09T11:21:52;97903.00;;;23.43;53.10
10474;BME280;5284;50.446;7.904;2022-09-09T11:27:00;97892.50;;;24.01;51.67
10474;BME280;5284;50.446;7.904;2022-09-09T11:32:19;97898.19;;;23.28;51.89
10474;BME280;5284;50.446;7.904;2022-09-09T11:37:47;97901.03;;;24.34;50.73
10474;BME280;5284;50.446;7.904;2022-09-09T11:43:02;97898.44;;;24.80;49.04
10474;BME280;5284;50.446;7.904;2022-09-09T11:48:23;97890.38;;;24.14;49.75
10474;BME280;5284;50.446;7.904;2022-09-09T11:53:28;97897.75;;;25.53;48.53
10474;BME280;5284;50.446;7.904;2022-09-09T11:58:39;97903.00;;;25.82;47.65
10474;BME280;5284;50.446;7.904;2022-09-09T12:03:46;97903.50;;;24.53;49.87
10474;BME280;5284;50.446;7.904;2022-09-09T12:08:53;97901.19;;;25.37;48.77
10474;BME280;5284;50.446;7.904;2022-09-09T12:13:59;97890.94;;;26.62;47.08
10474;BME280;5284;50.446;7.904;2022-09-09T12:19:06;97890.28;;;28.23;46.39
10474;BME280;5284;50.446;7.904;2022-09-09T12:24:11;97888.03;;;26.68;45.54
10474;BME280;5284;50.446;7.904;2022-09-09T12:29:24;97892.19;;;26.27;44.72
10474;BME280;5284;50.446;7.904;2022-09-09T12:34:39;97899.84;;;26.41;45.92
10474;BME280;5284;50.446;7.904;2022-09-09T12:39:45;97891.75;;;26.18;45.55
10474;BME280;5284;50.446;7.904;2022-09-09T12:44:54;97883.13;;;24.08;49.57
10474;BME280;5284;50.446;7.904;2022-09-09T12:49:58;97891.75;;;23.58;51.23
10474;BME280;5284;50.446;7.904;2022-09-09T12:55:04;97892.88;;;22.35;53.58
10474;BME280;5284;50.446;7.904;2022-09-09T13:00:15;97887.16;;;22.74;53.68
10474;BME280;5284;50.446;7.904;2022-09-09T13:05:21;97877.66;;;23.25;52.77
10474;BME280;5284;50.446;7.904;2022-09-09T13:10:28;97871.97;;;26.00;48.58
10474;BME280;5284;50.446;7.904;2022-09-09T13:15:52;97859.72;;;24.60;49.18
10474;BME280;5284;50.446;7.904;2022-09-09T13:20:57;97852.84;;;24.80;49.76
10474;BME280;5284;50.446;7.904;2022-09-09T13:26:03;97838.00;;;25.33;49.02
10474;BME280;5284;50.446;7.904;2022-09-09T13:31:20;97835.44;;;25.66;47.64
10474;BME280;5284;50.446;7.904;2022-09-09T13:36:28;97826.31;;;24.23;49.96
10474;BME280;5284;50.446;7.904;2022-09-09T13:41:34;97824.97;;;23.37;54.10
10474;BME280;5284;50.446;7.904;2022-09-09T13:46:39;97829.19;;;22.98;53.59
10474;BME280;5284;50.446;7.904;2022-09-09T13:51:45;97835.97;;;23.07;53.82
10474;BME280;5284;50.446;7.904;2022-09-09T13:56:48;97838.16;;;22.31;53.73
10474;BME280;5284;50.446;7.904;2022-09-09T14:01:52;97832.06;;;22.05;53.90
10474;BME280;5284;50.446;7.904;2022-09-09T14:06:56;97837.16;;;21.95;54.88
10474;BME280;5284;50.446;7.904;2022-09-09T14:12:01;97845.41;;;21.19;59.39
10474;BME280;5284;50.446;7.904;2022-09-09T14:17:04;97858.66;;;20.50;59.98
10474;BME280;5284;50.446;7.904;2022-09-09T14:22:10;97834.88;;;20.65;60.49
10474;BME280;5284;50.446;7.904;2022-09-09T14:27:13;97833.84;;;20.40;63.20
10474;BME280;5284;50.446;7.904;2022-09-09T14:32:16;97836.56;;;20.08;64.70
10474;BME280;5284;50.446;7.904;2022-09-09T14:37:20;97844.19;;;19.85;69.03
10474;BME280;5284;50.446;7.904;2022-09-09T14:42:24;97832.94;;;19.75;69.71
10474;BME280;5284;50.446;7.904;2022-09-09T14:47:27;97847.16;;;20.03;68.36
10474;BME280;5284;50.446;7.904;2022-09-09T14:52:35;97858.94;;;19.63;70.31
10474;BME280;5284;50.446;7.904;2022-09-09T14:57:38;97884.25;;;19.09;74.51
10474;BME280;5284;50.446;7.904;2022-09-09T15:02:43;97882.06;;;18.98;76.48
10474;BME280;5284;50.446;7.904;2022-09-09T15:07:47;97891.16;;;18.84;78.52
10474;BME280;5284;50.446;7.904;2022-09-09T15:12:50;97907.50;;;18.76;79.82
10474;BME280;5284;50.446;7.904;2022-09-09T15:17:53;97955.75;;;17.45;93.87
10474;BME280;5284;50.446;7.904;2022-09-09T15:22:57;97967.56;;;16.42;100.00
10474;BME280;5284;50.446;7.904;2022-09-09T15:28:00;97955.00;;;15.81;100.00
10474;BME280;5284;50.446;7.904;2022-09-09T15:33:07;97958.94;;;15.32;100.00
10474;BME280;5284;50.446;7.904;2022-09-09T15:38:15;97951.09;;;15.15;100.00
10474;BME280;5284;50.446;7.904;2022-09-09T15:43:18;97943.22;;;15.06;100.00
10474;BME280;5284;50.446;7.904;2022-09-09T15:48:29;97938.38;;;15.09;100.00
10474;BME280;5284;50.446;7.904;2022-09-09T15:53:35;97917.84;;;15.16;100.00
10474;BME280;5284;50.446;7.904;2022-09-09T15:58:38;97908.81;;;15.47;100.00
10474;BME280;5284;50.446;7.904;2022-09-09T16:03:42;97903.31;;;15.94;100.00
10474;BME280;5284;50.446;7.904;2022-09-09T16:08:50;97904.69;;;15.90;100.00
10474;BME280;5284;50.446;7.904;2022-09-09T16:13:54;97909.53;;;16.17;100.00
10474;BME280;5284;50.446;7.904;2022-09-09T16:18:59;97911.78;;;16.87;100.00
10474;BME280;5284;50.446;7.904;2022-09-09T16:24:05;97904.59;;;17.23;100.00
10474;BME280;5284;50.446;7.904;2022-09-09T16:29:08;97908.22;;;16.87;100.00
10474;BME280;5284;50.446;7.904;2022-09-09T16:34:11;97909.25;;;17.14;100.00
10474;BME280;5284;50.446;7.904;2022-09-09T16:39:16;97914.38;;;17.53;100.00
10474;BME280;5284;50.446;7.904;2022-09-09T16:44:20;97917.63;;;18.05;100.00
10474;BME280;5284;50.446;7.904;2022-09-09T16:49:23;97922.91;;;17.56;100.00
10474;BME280;5284;50.446;7.904;2022-09-09T16:54:28;97925.31;;;17.51;100.00
10474;BME280;5284;50.446;7.904;2022-09-09T16:59:30;97912.06;;;17.35;100.00
10474;BME280;5284;50.446;7.904;2022-09-09T17:04:33;97922.19;;;17.04;100.00
10474;BME280;5284;50.446;7.904;2022-09-09T17:09:38;97940.25;;;16.82;100.00
10474;BME280;5284;50.446;7.904;2022-09-09T17:14:41;97941.00;;;16.76;100.00
10474;BME280;5284;50.446;7.904;2022-09-09T17:19:44;97946.13;;;16.71;100.00
10474;BME280;5284;50.446;7.904;2022-09-09T17:24:48;97949.78;;;16.55;100.00
10474;BME280;5284;50.446;7.904;2022-09-09T17:29:51;97944.53;;;16.39;100.00
10474;BME280;5284;50.446;7.904;2022-09-09T17:34:53;97969.16;;;16.28;100.00
10474;BME280;5284;50.446;7.904;2022-09-09T17:39:58;97963.66;;;16.22;100.00
10474;BME280;5284;50.446;7.904;2022-09-09T17:45:02;97969.38;;;16.19;100.00
10474;BME280;5284;50.446;7.904;2022-09-09T17:50:06;97975.84;;;16.10;100.00
10474;BME280;5284;50.446;7.904;2022-09-09T17:55:10;97970.03;;;15.98;100.00
10474;BME280;5284;50.446;7.904;2022-09-09T18:00:14;97981.38;;;15.86;100.00
10474;BME280;5284;50.446;7.904;2022-09-09T18:05:17;97980.56;;;15.85;100.00
10474;BME280;5284;50.446;7.904;2022-09-09T18:10:23;97985.63;;;15.72;100.00
10474;BME280;5284;50.446;7.904;2022-09-09T18:15:26;97979.00;;;15.60;100.00
10474;BME280;5284;50.446;7.904;2022-09-09T18:20:57;97983.56;;;15.52;100.00
10474;BME280;5284;50.446;7.904;2022-09-09T18:26:01;97976.84;;;15.48;100.00
10474;BME280;5284;50.446;7.904;2022-09-09T18:31:05;97981.38;;;15.47;100.00
10474;BME280;5284;50.446;7.904;2022-09-09T18:36:10;97987.97;;;15.45;100.00
10474;BME280;5284;50.446;7.904;2022-09-09T18:41:15;97993.50;;;15.43;100.00
10474;BME280;5284;50.446;7.904;2022-09-09T18:46:20;97999.22;;;15.40;100.00
10474;BME280;5284;50.446;7.904;2022-09-09T18:51:25;97997.44;;;15.33;100.00
10474;BME280;5284;50.446;7.904;2022-09-09T18:56:30;97999.09;;;15.34;100.00
10474;BME280;5284;50.446;7.904;2022-09-09T19:01:33;98001.94;;;15.32;100.00
10474;BME280;5284;50.446;7.904;2022-09-09T19:06:39;97994.22;;;15.30;100.00
10474;BME280;5284;50.446;7.904;2022-09-09T19:11:44;98002.75;;;15.25;100.00
10474;BME280;5284;50.446;7.904;2022-09-09T19:16:47;98003.13;;;15.22;100.00
10474;BME280;5284;50.446;7.904;2022-09-09T19:21:50;98003.81;;;15.16;100.00
10474;BME280;5284;50.446;7.904;2022-09-09T19:26:56;98010.88;;;15.09;100.00
10474;BME280;5284;50.446;7.904;2022-09-09T19:32:02;98007.19;;;15.10;100.00
10474;BME280;5284;50.446;7.904;2022-09-09T19:37:25;98005.19;;;15.04;100.00
10474;BME280;5284;50.446;7.904;2022-09-09T19:42:29;98006.53;;;15.00;100.00
10474;BME280;5284;50.446;7.904;2022-09-09T19:47:33;98003.19;;;14.90;100.00
10474;BME280;5284;50.446;7.904;2022-09-09T19:52:36;98002.38;;;14.82;100.00
10474;BME280;5284;50.446;7.904;2022-09-09T19:57:40;98007.41;;;14.77;100.00
10474;BME280;5284;50.446;7.904;2022-09-09T20:02:43;98014.78;;;14.75;100.00
10474;BME280;5284;50.446;7.904;2022-09-09T20:08:03;98016.31;;;14.69;100.00
10474;BME280;5284;50.446;7.904;2022-09-09T20:13:07;98022.03;;;14.66;100.00
10474;BME280;5284;50.446;7.904;2022-09-09T20:18:10;98022.19;;;14.65;100.00
10474;BME280;5284;50.446;7.904;2022-09-09T20:23:13;98022.53;;;14.54;100.00
10474;BME280;5284;50.446;7.904;2022-09-09T20:28:18;98019.84;;;14.54;100.00
10474;BME280;5284;50.446;7.904;2022-09-09T20:33:21;98023.88;;;14.50;100.00
10474;BME280;5284;50.446;7.904;2022-09-09T20:38:24;98027.72;;;14.47;100.00
10474;BME280;5284;50.446;7.904;2022-09-09T20:43:29;98027.38;;;14.42;100.00
10474;BME280;5284;50.446;7.904;2022-09-09T20:48:33;98027.38;;;14.34;100.00
10474;BME280;5284;50.446;7.904;2022-09-09T20:53:36;98023.50;;;14.29;100.00
10474;BME280;5284;50.446;7.904;2022-09-09T20:58:41;98030.22;;;14.25;100.00
10474;BME280;5284;50.446;7.904;2022-09-09T21:03:45;98029.53;;;14.23;100.00
10474;BME280;5284;50.446;7.904;2022-09-09T21:08:48;98022.16;;;14.17;100.00
10474;BME280;5284;50.446;7.904;2022-09-09T21:13:53;98029.19;;;14.18;100.00
10474;BME280;5284;50.446;7.904;2022-09-09T21:18:56;98036.25;;;14.19;100.00
10474;BME280;5284;50.446;7.904;2022-09-09T21:24:00;98052.00;;;14.22;100.00
10474;BME280;5284;50.446;7.904;2022-09-09T21:29:04;98041.28;;;14.22;100.00
10474;BME280;5284;50.446;7.904;2022-09-09T21:34:07;98047.13;;;14.25;100.00
10474;BME280;5284;50.446;7.904;2022-09-09T21:39:11;98046.44;;;14.23;100.00
10474;BME280;5284;50.446;7.904;2022-09-09T21:44:15;98054.84;;;14.20;100.00
10474;BME280;5284;50.446;7.904;2022-09-09T21:49:19;98050.31;;;14.21;100.00
10474;BME280;5284;50.446;7.904;2022-09-09T21:54:23;98051.16;;;14.21;100.00
10474;BME280;5284;50.446;7.904;2022-09-09T21:59:28;98055.84;;;14.27;100.00
10474;BME280;5284;50.446;7.904;2022-09-09T22:04:34;98058.53;;;14.27;100.00
10474;BME280;5284;50.446;7.904;2022-09-09T22:09:37;98051.19;;;14.29;100.00
10474;BME280;5284;50.446;7.904;2022-09-09T22:14:41;98046.50;;;14.31;100.00
10474;BME280;5284;50.446;7.904;2022-09-09T22:19:44;98041.28;;;14.30;100.00
10474;BME280;5284;50.446;7.904;2022-09-09T22:24:47;98040.75;;;14.26;100.00
10474;BME280;5284;50.446;7.904;2022-09-09T22:29:51;98041.59;;;14.27;100.00
10474;BME280;5284;50.446;7.904;2022-09-09T22:34:54;98040.41;;;14.21;100.00
10474;BME280;5284;50.446;7.904;2022-09-09T22:39:57;98046.97;;;14.19;100.00
10474;BME280;5284;50.446;7.904;2022-09-09T22:45:01;98050.66;;;14.18;100.00
10474;BME280;5284;50.446;7.904;2022-09-09T22:50:04;98047.97;;;14.18;100.00
10474;BME280;5284;50.446;7.904;2022-09-09T22:55:08;98055.00;;;14.19;100.00
10474;BME280;5284;50.446;7.904;2022-09-09T23:00:13;98045.75;;;14.13;100.00
10474;BME280;5284;50.446;7.904;2022-09-09T23:05:16;98039.72;;;14.11;100.00
10474;BME280;5284;50.446;7.904;2022-09-09T23:10:21;98044.41;;;14.09;100.00
10474;BME280;5284;50.446;7.904;2022-09-09T23:15:26;98051.44;;;14.10;100.00
10474;BME280;5284;50.446;7.904;2022-09-09T23:20:31;98046.56;;;14.06;100.00
10474;BME280;5284;50.446;7.904;2022-09-09T23:25:35;98053.59;;;14.07;100.00
10474;BME280;5284;50.446;7.904;2022-09-09T23:30:41;98070.69;;;14.06;100.00
10474;BME280;5284;50.446;7.904;2022-09-09T23:35:44;98070.53;;;14.07;100.00
10474;BME280;5284;50.446;7.904;2022-09-09T23:40:47;98062.84;;;14.12;100.00
10474;BME280;5284;50.446;7.904;2022-09-09T23:45:51;98067.91;;;14.15;100.00
10474;BME280;5284;50.446;7.904;2022-09-09T23:50:54;98057.84;;;14.17;100.00
10474;BME280;5284;50.446;7.904;2022-09-09T23:55:57;98060.53;;;14.17;100.00
